< < Back
Terminal Aerodrome Forecast


Current Version              Previous Versions:   1  2  3  4  5  6  7  8  9  

Terminal Aerodrome Forecast

982
FTUS42 KJAX 272114 CCA
TAFJAX
TAF COR
KJAX 272114Z 2721/2818 29012G20KT P6SM SCT015 BKN040
     FM280000 29010KT P6SM SCT040 BKN250
     FM280300 32010KT P6SM SKC
     FM281500 30011G22KT P6SM SCT250=



Latest METAR

890
SAUS80 KWBC 280300
MTRJAX
METAR KJAX 280256Z 25007KT 10SM SCT250 11/09 A2993 RMK AO2 SLP136
T01110089 51039


USA.gov is the U.S. government's official web portal to all federal, state and local government web resources and services.